sensor_id;sensor_type;location;lat;lon;timestamp;temperature;humidity
909;DHT22;441;51.192;6.788;2023-02-03T00:00:38;20.20;49.40
909;DHT22;441;51.192;6.788;2023-02-03T00:03:05;20.20;49.50
909;DHT22;441;51.192;6.788;2023-02-03T00:05:33;20.20;49.50
909;DHT22;441;51.192;6.788;2023-02-03T00:08:02;20.20;49.60
909;DHT22;441;51.192;6.788;2023-02-03T00:10:32;20.20;49.70
909;DHT22;441;51.192;6.788;2023-02-03T00:12:59;20.20;49.70
909;DHT22;441;51.192;6.788;2023-02-03T00:15:26;20.20;49.70
909;DHT22;441;51.192;6.788;2023-02-03T00:17:53;20.20;49.70
909;DHT22;441;51.192;6.788;2023-02-03T00:20:20;20.20;49.70
909;DHT22;441;51.192;6.788;2023-02-03T00:22:46;20.10;49.60
909;DHT22;441;51.192;6.788;2023-02-03T00:25:13;20.10;49.70
909;DHT22;441;51.192;6.788;2023-02-03T00:27:42;20.10;49.70
909;DHT22;441;51.192;6.788;2023-02-03T00:30:10;20.10;49.70
909;DHT22;441;51.192;6.788;2023-02-03T00:32:37;20.10;49.80
909;DHT22;441;51.192;6.788;2023-02-03T00:35:05;20.10;49.90
909;DHT22;441;51.192;6.788;2023-02-03T00:37:32;20.10;49.70
909;DHT22;441;51.192;6.788;2023-02-03T00:39:58;20.10;49.80
909;DHT22;441;51.192;6.788;2023-02-03T00:42:25;20.10;49.80
909;DHT22;441;51.192;6.788;2023-02-03T00:44:53;20.10;49.80
909;DHT22;441;51.192;6.788;2023-02-03T00:47:20;20.10;49.80
909;DHT22;441;51.192;6.788;2023-02-03T00:49:47;20.10;49.80
909;DHT22;441;51.192;6.788;2023-02-03T00:52:14;20.10;49.80
909;DHT22;441;51.192;6.788;2023-02-03T00:54:41;20.10;49.80
909;DHT22;441;51.192;6.788;2023-02-03T00:57:08;20.10;49.90
909;DHT22;441;51.192;6.788;2023-02-03T00:59:35;20.10;49.90
909;DHT22;441;51.192;6.788;2023-02-03T01:02:03;20.10;49.90
909;DHT22;441;51.192;6.788;2023-02-03T01:04:30;20.10;49.90
909;DHT22;441;51.192;6.788;2023-02-03T01:06:57;20.10;49.90
909;DHT22;441;51.192;6.788;2023-02-03T01:09:24;20.10;49.90
909;DHT22;441;51.192;6.788;2023-02-03T01:11:51;20.10;50.00
909;DHT22;441;51.192;6.788;2023-02-03T01:14:18;20.00;49.90
909;DHT22;441;51.192;6.788;2023-02-03T01:16:45;20.00;49.90
909;DHT22;441;51.192;6.788;2023-02-03T01:19:13;20.00;49.90
909;DHT22;441;51.192;6.788;2023-02-03T01:21:41;20.10;50.00
909;DHT22;441;51.192;6.788;2023-02-03T01:24:08;20.10;50.00
909;DHT22;441;51.192;6.788;2023-02-03T01:26:35;20.00;50.00
909;DHT22;441;51.192;6.788;2023-02-03T01:29:02;20.10;50.00
909;DHT22;441;51.192;6.788;2023-02-03T01:31:30;20.00;50.00
909;DHT22;441;51.192;6.788;2023-02-03T01:33:59;20.00;50.50
909;DHT22;441;51.192;6.788;2023-02-03T01:36:29;20.00;50.50
909;DHT22;441;51.192;6.788;2023-02-03T01:38:56;20.00;50.00
909;DHT22;441;51.192;6.788;2023-02-03T01:41:26;20.00;50.10
909;DHT22;441;51.192;6.788;2023-02-03T01:43:55;20.00;50.00
909;DHT22;441;51.192;6.788;2023-02-03T01:46:26;20.00;50.10
909;DHT22;441;51.192;6.788;2023-02-03T01:49:00;20.00;50.20
909;DHT22;441;51.192;6.788;2023-02-03T01:51:30;20.00;50.20
909;DHT22;441;51.192;6.788;2023-02-03T01:53:58;20.00;50.20
909;DHT22;441;51.192;6.788;2023-02-03T01:56:27;20.00;50.20
909;DHT22;441;51.192;6.788;2023-02-03T01:58:56;20.10;50.20
909;DHT22;441;51.192;6.788;2023-02-03T02:01:24;20.00;50.10
909;DHT22;441;51.192;6.788;2023-02-03T02:03:55;20.00;50.10
909;DHT22;441;51.192;6.788;2023-02-03T02:06:23;20.00;50.20
909;DHT22;441;51.192;6.788;2023-02-03T02:08:52;20.00;50.10
909;DHT22;441;51.192;6.788;2023-02-03T02:11:19;20.00;50.20
909;DHT22;441;51.192;6.788;2023-02-03T02:13:48;20.10;50.10
909;DHT22;441;51.192;6.788;2023-02-03T02:16:19;20.00;50.20
909;DHT22;441;51.192;6.788;2023-02-03T02:19:04;20.00;50.20
909;DHT22;441;51.192;6.788;2023-02-03T02:21:51;20.00;50.20
909;DHT22;441;51.192;6.788;2023-02-03T02:30:45;20.00;50.20
909;DHT22;441;51.192;6.788;2023-02-03T02:33:25;20.00;50.30
909;DHT22;441;51.192;6.788;2023-02-03T02:35:57;20.00;50.30
909;DHT22;441;51.192;6.788;2023-02-03T02:38:39;20.00;50.30
909;DHT22;441;51.192;6.788;2023-02-03T02:41:16;20.00;50.30
909;DHT22;441;51.192;6.788;2023-02-03T02:43:46;20.00;50.30
909;DHT22;441;51.192;6.788;2023-02-03T02:46:18;20.00;50.30
909;DHT22;441;51.192;6.788;2023-02-03T02:48:52;20.00;50.30
909;DHT22;441;51.192;6.788;2023-02-03T02:51:21;20.00;50.30
909;DHT22;441;51.192;6.788;2023-02-03T02:53:52;20.00;50.30
909;DHT22;441;51.192;6.788;2023-02-03T02:56:20;20.00;50.30
909;DHT22;441;51.192;6.788;2023-02-03T02:58:50;20.00;50.30
909;DHT22;441;51.192;6.788;2023-02-03T03:01:19;20.00;50.30
909;DHT22;441;51.192;6.788;2023-02-03T03:03:46;20.00;50.30
909;DHT22;441;51.192;6.788;2023-02-03T03:06:19;20.00;50.40
909;DHT22;441;51.192;6.788;2023-02-03T03:08:51;20.00;50.50
909;DHT22;441;51.192;6.788;2023-02-03T03:11:20;20.00;50.50
909;DHT22;441;51.192;6.788;2023-02-03T03:13:49;20.00;50.60
909;DHT22;441;51.192;6.788;2023-02-03T03:16:21;19.90;50.50
909;DHT22;441;51.192;6.788;2023-02-03T03:18:51;20.00;50.60
909;DHT22;441;51.192;6.788;2023-02-03T03:21:24;20.00;50.70
909;DHT22;441;51.192;6.788;2023-02-03T03:23:54;20.00;50.70
909;DHT22;441;51.192;6.788;2023-02-03T03:26:29;20.00;50.70
909;DHT22;441;51.192;6.788;2023-02-03T03:29:05;20.00;50.60
909;DHT22;441;51.192;6.788;2023-02-03T03:31:32;20.00;50.60
909;DHT22;441;51.192;6.788;2023-02-03T03:33:59;20.00;50.60
909;DHT22;441;51.192;6.788;2023-02-03T03:36:30;20.00;50.50
909;DHT22;441;51.192;6.788;2023-02-03T03:39:03;20.00;50.50
909;DHT22;441;51.192;6.788;2023-02-03T03:41:37;20.00;50.50
909;DHT22;441;51.192;6.788;2023-02-03T03:44:11;20.00;50.60
909;DHT22;441;51.192;6.788;2023-02-03T03:46:42;20.00;50.60
909;DHT22;441;51.192;6.788;2023-02-03T03:49:11;20.00;50.60
909;DHT22;441;51.192;6.788;2023-02-03T03:51:43;20.00;50.60
909;DHT22;441;51.192;6.788;2023-02-03T03:54:13;19.90;50.60
909;DHT22;441;51.192;6.788;2023-02-03T03:56:45;19.90;50.60
909;DHT22;441;51.192;6.788;2023-02-03T03:59:18;20.00;50.60
909;DHT22;441;51.192;6.788;2023-02-03T04:01:47;20.00;50.60
909;DHT22;441;51.192;6.788;2023-02-03T04:04:14;20.00;50.70
909;DHT22;441;51.192;6.788;2023-02-03T04:06:42;20.00;50.70
909;DHT22;441;51.192;6.788;2023-02-03T04:09:09;20.00;50.60
909;DHT22;441;51.192;6.788;2023-02-03T04:11:36;20.00;50.60
909;DHT22;441;51.192;6.788;2023-02-03T04:14:20;20.00;50.60
909;DHT22;441;51.192;6.788;2023-02-03T04:16:47;20.00;50.50
909;DHT22;441;51.192;6.788;2023-02-03T04:19:14;20.00;50.60
909;DHT22;441;51.192;6.788;2023-02-03T04:21:40;20.10;50.60
909;DHT22;441;51.192;6.788;2023-02-03T04:24:09;20.10;50.60
909;DHT22;441;51.192;6.788;2023-02-03T04:26:36;20.10;51.00
909;DHT22;441;51.192;6.788;2023-02-03T04:29:03;20.10;50.50
909;DHT22;441;51.192;6.788;2023-02-03T04:31:30;20.10;50.50
909;DHT22;441;51.192;6.788;2023-02-03T04:33:57;20.10;50.50
909;DHT22;441;51.192;6.788;2023-02-03T04:36:23;20.10;50.50
909;DHT22;441;51.192;6.788;2023-02-03T04:38:50;20.10;50.50
909;DHT22;441;51.192;6.788;2023-02-03T04:41:19;20.10;50.50
909;DHT22;441;51.192;6.788;2023-02-03T04:43:45;20.10;50.50
909;DHT22;441;51.192;6.788;2023-02-03T04:46:12;20.10;50.50
909;DHT22;441;51.192;6.788;2023-02-03T04:48:39;20.10;50.50
909;DHT22;441;51.192;6.788;2023-02-03T04:51:07;20.10;50.50
909;DHT22;441;51.192;6.788;2023-02-03T04:53:34;20.20;50.50
909;DHT22;441;51.192;6.788;2023-02-03T04:56:01;20.20;50.50
909;DHT22;441;51.192;6.788;2023-02-03T04:58:29;20.20;50.50
909;DHT22;441;51.192;6.788;2023-02-03T05:00:56;20.20;50.50
909;DHT22;441;51.192;6.788;2023-02-03T05:03:23;20.20;50.60
909;DHT22;441;51.192;6.788;2023-02-03T05:05:50;20.20;50.70
909;DHT22;441;51.192;6.788;2023-02-03T05:08:17;20.20;50.90
909;DHT22;441;51.192;6.788;2023-02-03T05:10:43;20.30;51.20
909;DHT22;441;51.192;6.788;2023-02-03T05:13:10;20.30;51.30
909;DHT22;441;51.192;6.788;2023-02-03T05:15:38;20.30;51.60
909;DHT22;441;51.192;6.788;2023-02-03T05:18:05;20.30;51.90
909;DHT22;441;51.192;6.788;2023-02-03T05:20:32;20.30;52.00
909;DHT22;441;51.192;6.788;2023-02-03T05:22:59;20.30;52.10
909;DHT22;441;51.192;6.788;2023-02-03T05:25:26;20.30;52.20
909;DHT22;441;51.192;6.788;2023-02-03T05:27:53;20.20;52.20
909;DHT22;441;51.192;6.788;2023-02-03T05:30:20;20.20;52.30
909;DHT22;441;51.192;6.788;2023-02-03T05:32:49;20.30;52.20
909;DHT22;441;51.192;6.788;2023-02-03T05:35:16;20.30;52.20
909;DHT22;441;51.192;6.788;2023-02-03T05:37:43;20.30;52.10
909;DHT22;441;51.192;6.788;2023-02-03T05:40:11;20.30;52.20
909;DHT22;441;51.192;6.788;2023-02-03T05:42:56;20.30;52.20
909;DHT22;441;51.192;6.788;2023-02-03T05:45:23;20.30;51.80
909;DHT22;441;51.192;6.788;2023-02-03T05:47:51;20.30;51.60
909;DHT22;441;51.192;6.788;2023-02-03T05:50:18;20.40;51.80
909;DHT22;441;51.192;6.788;2023-02-03T05:52:47;20.40;52.10
909;DHT22;441;51.192;6.788;2023-02-03T05:55:14;20.50;52.30
909;DHT22;441;51.192;6.788;2023-02-03T05:57:41;20.50;52.90
909;DHT22;441;51.192;6.788;2023-02-03T06:00:09;20.50;55.00
909;DHT22;441;51.192;6.788;2023-02-03T06:02:36;20.50;55.70
909;DHT22;441;51.192;6.788;2023-02-03T06:05:04;20.60;55.80
909;DHT22;441;51.192;6.788;2023-02-03T06:07:31;20.70;55.90
909;DHT22;441;51.192;6.788;2023-02-03T06:09:58;20.70;55.60
909;DHT22;441;51.192;6.788;2023-02-03T06:12:25;20.80;55.50
909;DHT22;441;51.192;6.788;2023-02-03T06:14:52;20.80;55.20
909;DHT22;441;51.192;6.788;2023-02-03T06:17:19;20.80;54.90
909;DHT22;441;51.192;6.788;2023-02-03T06:19:45;20.90;54.70
909;DHT22;441;51.192;6.788;2023-02-03T06:22:13;20.80;54.30
909;DHT22;441;51.192;6.788;2023-02-03T06:24:40;20.80;54.00
909;DHT22;441;51.192;6.788;2023-02-03T06:27:09;20.90;53.90
909;DHT22;441;51.192;6.788;2023-02-03T06:29:36;20.80;53.60
909;DHT22;441;51.192;6.788;2023-02-03T06:32:03;20.80;53.40
909;DHT22;441;51.192;6.788;2023-02-03T06:34:31;20.80;53.30
909;DHT22;441;51.192;6.788;2023-02-03T06:36:58;20.80;53.10
909;DHT22;441;51.192;6.788;2023-02-03T06:39:26;20.80;53.50
909;DHT22;441;51.192;6.788;2023-02-03T06:41:53;20.90;52.90
909;DHT22;441;51.192;6.788;2023-02-03T06:44:20;20.90;52.70
909;DHT22;441;51.192;6.788;2023-02-03T06:46:47;20.80;52.50
909;DHT22;441;51.192;6.788;2023-02-03T06:49:15;20.90;52.50
909;DHT22;441;51.192;6.788;2023-02-03T06:51:42;20.80;52.30
909;DHT22;441;51.192;6.788;2023-02-03T06:54:09;20.80;52.20
909;DHT22;441;51.192;6.788;2023-02-03T06:56:37;20.80;52.20
909;DHT22;441;51.192;6.788;2023-02-03T06:59:04;20.80;52.10
909;DHT22;441;51.192;6.788;2023-02-03T07:01:31;20.80;52.00
909;DHT22;441;51.192;6.788;2023-02-03T07:03:58;20.80;52.00
909;DHT22;441;51.192;6.788;2023-02-03T07:06:25;20.80;52.00
909;DHT22;441;51.192;6.788;2023-02-03T07:08:53;20.90;52.00
909;DHT22;441;51.192;6.788;2023-02-03T07:11:20;20.90;52.00
909;DHT22;441;51.192;6.788;2023-02-03T07:13:49;20.90;51.90
909;DHT22;441;51.192;6.788;2023-02-03T07:16:16;20.90;51.90
909;DHT22;441;51.192;6.788;2023-02-03T07:18:43;21.00;52.00
909;DHT22;441;51.192;6.788;2023-02-03T07:21:10;21.00;51.90
909;DHT22;441;51.192;6.788;2023-02-03T07:23:37;21.00;51.80
909;DHT22;441;51.192;6.788;2023-02-03T07:26:06;21.00;51.70
909;DHT22;441;51.192;6.788;2023-02-03T07:28:33;21.10;51.70
909;DHT22;441;51.192;6.788;2023-02-03T07:31:02;21.10;51.60
909;DHT22;441;51.192;6.788;2023-02-03T07:33:29;21.10;51.50
909;DHT22;441;51.192;6.788;2023-02-03T07:35:58;21.10;51.30
909;DHT22;441;51.192;6.788;2023-02-03T07:38:26;21.10;51.30
909;DHT22;441;51.192;6.788;2023-02-03T07:40:53;21.10;51.20
909;DHT22;441;51.192;6.788;2023-02-03T07:43:20;21.10;51.10
909;DHT22;441;51.192;6.788;2023-02-03T07:45:47;21.10;51.00
909;DHT22;441;51.192;6.788;2023-02-03T07:48:15;21.10;50.90
909;DHT22;441;51.192;6.788;2023-02-03T07:50:42;21.10;50.80
909;DHT22;441;51.192;6.788;2023-02-03T07:53:10;21.10;50.80
909;DHT22;441;51.192;6.788;2023-02-03T07:55:37;21.10;50.70
909;DHT22;441;51.192;6.788;2023-02-03T07:58:03;21.10;50.70
909;DHT22;441;51.192;6.788;2023-02-03T08:00:31;21.10;50.60
909;DHT22;441;51.192;6.788;2023-02-03T08:02:58;21.10;50.60
909;DHT22;441;51.192;6.788;2023-02-03T08:05:26;21.00;50.50
909;DHT22;441;51.192;6.788;2023-02-03T08:07:53;21.00;50.40
909;DHT22;441;51.192;6.788;2023-02-03T08:10:20;21.00;50.40
909;DHT22;441;51.192;6.788;2023-02-03T08:12:47;21.00;50.30
909;DHT22;441;51.192;6.788;2023-02-03T08:15:14;21.00;50.20
909;DHT22;441;51.192;6.788;2023-02-03T08:17:41;21.00;50.20
909;DHT22;441;51.192;6.788;2023-02-03T08:20:10;21.00;50.20
909;DHT22;441;51.192;6.788;2023-02-03T08:22:38;21.00;50.10
909;DHT22;441;51.192;6.788;2023-02-03T08:25:06;21.00;50.00
909;DHT22;441;51.192;6.788;2023-02-03T08:27:33;20.90;49.90
909;DHT22;441;51.192;6.788;2023-02-03T08:30:00;21.00;50.00
909;DHT22;441;51.192;6.788;2023-02-03T08:32:27;21.00;50.00
909;DHT22;441;51.192;6.788;2023-02-03T08:34:53;21.00;50.00
909;DHT22;441;51.192;6.788;2023-02-03T08:37:22;21.00;50.00
909;DHT22;441;51.192;6.788;2023-02-03T08:39:52;21.00;50.00
909;DHT22;441;51.192;6.788;2023-02-03T08:42:19;21.10;50.00
909;DHT22;441;51.192;6.788;2023-02-03T08:44:46;21.10;49.90
909;DHT22;441;51.192;6.788;2023-02-03T08:47:14;21.10;49.90
909;DHT22;441;51.192;6.788;2023-02-03T08:49:41;21.10;49.80
909;DHT22;441;51.192;6.788;2023-02-03T08:52:10;21.10;49.80
909;DHT22;441;51.192;6.788;2023-02-03T08:54:37;21.20;49.80
909;DHT22;441;51.192;6.788;2023-02-03T08:57:06;21.20;49.80
909;DHT22;441;51.192;6.788;2023-02-03T08:59:33;21.20;49.70
909;DHT22;441;51.192;6.788;2023-02-03T09:02:01;21.20;49.70
909;DHT22;441;51.192;6.788;2023-02-03T09:04:28;21.20;49.70
909;DHT22;441;51.192;6.788;2023-02-03T09:06:55;21.20;49.70
909;DHT22;441;51.192;6.788;2023-02-03T09:09:22;21.20;49.60
909;DHT22;441;51.192;6.788;2023-02-03T09:11:51;21.20;49.50
909;DHT22;441;51.192;6.788;2023-02-03T09:14:19;21.20;49.50
909;DHT22;441;51.192;6.788;2023-02-03T09:16:46;21.20;49.40
909;DHT22;441;51.192;6.788;2023-02-03T09:19:13;21.20;49.30
909;DHT22;441;51.192;6.788;2023-02-03T09:21:39;21.20;49.30
909;DHT22;441;51.192;6.788;2023-02-03T09:24:07;21.10;49.20
909;DHT22;441;51.192;6.788;2023-02-03T09:26:34;21.20;49.30
909;DHT22;441;51.192;6.788;2023-02-03T09:29:00;21.10;49.20
909;DHT22;441;51.192;6.788;2023-02-03T09:31:29;21.10;49.10
909;DHT22;441;51.192;6.788;2023-02-03T09:33:58;21.10;49.10
909;DHT22;441;51.192;6.788;2023-02-03T09:36:25;21.10;49.10
909;DHT22;441;51.192;6.788;2023-02-03T09:38:52;21.10;49.00
909;DHT22;441;51.192;6.788;2023-02-03T09:41:39;21.10;49.00
909;DHT22;441;51.192;6.788;2023-02-03T09:44:13;21.00;48.90
909;DHT22;441;51.192;6.788;2023-02-03T09:46:46;21.00;48.90
909;DHT22;441;51.192;6.788;2023-02-03T09:49:16;21.00;48.90
909;DHT22;441;51.192;6.788;2023-02-03T09:51:48;21.00;49.00
909;DHT22;441;51.192;6.788;2023-02-03T09:54:18;21.00;49.00
909;DHT22;441;51.192;6.788;2023-02-03T09:56:46;21.00;49.00
909;DHT22;441;51.192;6.788;2023-02-03T09:59:17;21.00;49.00
909;DHT22;441;51.192;6.788;2023-02-03T10:01:51;21.00;49.10
909;DHT22;441;51.192;6.788;2023-02-03T10:04:28;21.00;49.10
909;DHT22;441;51.192;6.788;2023-02-03T10:07:05;21.10;49.10
909;DHT22;441;51.192;6.788;2023-02-03T10:09:42;21.10;49.10
909;DHT22;441;51.192;6.788;2023-02-03T10:12:24;21.10;49.10
909;DHT22;441;51.192;6.788;2023-02-03T10:15:06;21.10;49.10
909;DHT22;441;51.192;6.788;2023-02-03T10:17:40;21.20;49.10
909;DHT22;441;51.192;6.788;2023-02-03T10:20:14;21.20;49.10
909;DHT22;441;51.192;6.788;2023-02-03T10:22:44;21.20;49.10
909;DHT22;441;51.192;6.788;2023-02-03T10:25:16;21.20;49.10
909;DHT22;441;51.192;6.788;2023-02-03T10:27:50;21.20;49.00
909;DHT22;441;51.192;6.788;2023-02-03T10:30:20;21.20;49.00
909;DHT22;441;51.192;6.788;2023-02-03T10:32:50;21.20;48.90
909;DHT22;441;51.192;6.788;2023-02-03T10:35:20;21.20;48.90
909;DHT22;441;51.192;6.788;2023-02-03T10:37:50;21.20;48.80
909;DHT22;441;51.192;6.788;2023-02-03T10:40:19;21.20;48.80
909;DHT22;441;51.192;6.788;2023-02-03T10:42:48;21.20;48.70
909;DHT22;441;51.192;6.788;2023-02-03T10:45:36;21.20;48.70
909;DHT22;441;51.192;6.788;2023-02-03T10:48:06;21.20;48.60
909;DHT22;441;51.192;6.788;2023-02-03T10:50:37;21.20;48.60
909;DHT22;441;51.192;6.788;2023-02-03T10:53:22;21.20;48.60
909;DHT22;441;51.192;6.788;2023-02-03T10:56:00;21.20;48.60
909;DHT22;441;51.192;6.788;2023-02-03T10:58:28;21.20;48.60
909;DHT22;441;51.192;6.788;2023-02-03T11:00:57;21.20;48.60
909;DHT22;441;51.192;6.788;2023-02-03T11:03:31;21.10;48.50
909;DHT22;441;51.192;6.788;2023-02-03T11:06:07;21.10;48.50
909;DHT22;441;51.192;6.788;2023-02-03T11:08:35;21.10;48.40
909;DHT22;441;51.192;6.788;2023-02-03T11:11:04;21.10;48.50
909;DHT22;441;51.192;6.788;2023-02-03T11:13:31;21.10;48.40
909;DHT22;441;51.192;6.788;2023-02-03T11:15:59;21.10;48.40
909;DHT22;441;51.192;6.788;2023-02-03T11:18:36;21.10;48.50
909;DHT22;441;51.192;6.788;2023-02-03T11:21:08;21.00;48.40
909;DHT22;441;51.192;6.788;2023-02-03T11:23:36;21.10;48.50
909;DHT22;441;51.192;6.788;2023-02-03T11:26:12;21.00;48.50
909;DHT22;441;51.192;6.788;2023-02-03T11:28:42;21.00;48.50
909;DHT22;441;51.192;6.788;2023-02-03T11:31:18;21.10;48.60
909;DHT22;441;51.192;6.788;2023-02-03T11:33:53;21.10;48.60
909;DHT22;441;51.192;6.788;2023-02-03T11:36:21;21.10;48.60
909;DHT22;441;51.192;6.788;2023-02-03T11:38:50;21.10;48.60
909;DHT22;441;51.192;6.788;2023-02-03T11:41:18;21.20;48.60
909;DHT22;441;51.192;6.788;2023-02-03T11:43:46;21.10;48.60
909;DHT22;441;51.192;6.788;2023-02-03T11:46:14;21.20;48.70
909;DHT22;441;51.192;6.788;2023-02-03T11:48:50;21.20;48.60
909;DHT22;441;51.192;6.788;2023-02-03T11:51:29;21.20;48.60
909;DHT22;441;51.192;6.788;2023-02-03T11:54:05;21.20;48.60
909;DHT22;441;51.192;6.788;2023-02-03T11:56:57;21.20;48.50
909;DHT22;441;51.192;6.788;2023-02-03T11:59:45;21.20;48.50
909;DHT22;441;51.192;6.788;2023-02-03T12:02:50;21.20;48.50
909;DHT22;441;51.192;6.788;2023-02-03T12:05:35;21.20;48.50
909;DHT22;441;51.192;6.788;2023-02-03T12:08:12;21.20;48.40
909;DHT22;441;51.192;6.788;2023-02-03T12:10:50;21.20;48.50
909;DHT22;441;51.192;6.788;2023-02-03T12:13:34;21.20;48.50
909;DHT22;441;51.192;6.788;2023-02-03T12:16:20;21.20;48.40
909;DHT22;441;51.192;6.788;2023-02-03T12:19:01;21.20;48.40
909;DHT22;441;51.192;6.788;2023-02-03T12:21:42;21.20;48.40
909;DHT22;441;51.192;6.788;2023-02-03T12:24:19;21.20;48.40
909;DHT22;441;51.192;6.788;2023-02-03T12:26:55;21.20;48.90
909;DHT22;441;51.192;6.788;2023-02-03T12:29:30;21.20;48.40
909;DHT22;441;51.192;6.788;2023-02-03T12:32:04;21.20;48.40
909;DHT22;441;51.192;6.788;2023-02-03T12:34:34;21.20;48.40
909;DHT22;441;51.192;6.788;2023-02-03T12:37:08;21.10;48.30
909;DHT22;441;51.192;6.788;2023-02-03T12:39:40;21.10;48.30
909;DHT22;441;51.192;6.788;2023-02-03T12:42:14;21.10;48.30
909;DHT22;441;51.192;6.788;2023-02-03T12:44:47;21.10;48.30
909;DHT22;441;51.192;6.788;2023-02-03T12:47:22;21.10;48.30
909;DHT22;441;51.192;6.788;2023-02-03T12:49:53;21.10;48.30
909;DHT22;441;51.192;6.788;2023-02-03T12:52:26;21.00;48.30
909;DHT22;441;51.192;6.788;2023-02-03T12:55:02;21.10;48.40
909;DHT22;441;51.192;6.788;2023-02-03T12:57:35;21.10;48.40
909;DHT22;441;51.192;6.788;2023-02-03T13:00:20;21.10;48.40
909;DHT22;441;51.192;6.788;2023-02-03T13:02:55;21.10;48.40
909;DHT22;441;51.192;6.788;2023-02-03T13:05:29;21.10;48.40
909;DHT22;441;51.192;6.788;2023-02-03T13:08:05;21.20;48.50
909;DHT22;441;51.192;6.788;2023-02-03T13:10:38;21.20;48.50
909;DHT22;441;51.192;6.788;2023-02-03T13:13:11;21.20;48.50
909;DHT22;441;51.192;6.788;2023-02-03T13:15:43;21.20;48.50
909;DHT22;441;51.192;6.788;2023-02-03T13:18:20;21.20;48.50
909;DHT22;441;51.192;6.788;2023-02-03T13:20:51;21.20;48.50
909;DHT22;441;51.192;6.788;2023-02-03T13:23:20;21.20;48.50
909;DHT22;441;51.192;6.788;2023-02-03T13:26:09;21.20;48.40
909;DHT22;441;51.192;6.788;2023-02-03T13:29:00;21.20;48.40
909;DHT22;441;51.192;6.788;2023-02-03T13:31:38;21.20;48.40
909;DHT22;441;51.192;6.788;2023-02-03T13:34:28;21.20;48.30
909;DHT22;441;51.192;6.788;2023-02-03T13:40:11;21.20;48.30
909;DHT22;441;51.192;6.788;2023-02-03T13:42:43;21.20;48.80
909;DHT22;441;51.192;6.788;2023-02-03T13:45:15;21.20;48.30
909;DHT22;441;51.192;6.788;2023-02-03T13:47:46;21.20;48.20
909;DHT22;441;51.192;6.788;2023-02-03T13:50:21;21.20;48.20
909;DHT22;441;51.192;6.788;2023-02-03T13:52:54;21.20;48.20
909;DHT22;441;51.192;6.788;2023-02-03T13:55:34;21.20;48.20
909;DHT22;441;51.192;6.788;2023-02-03T13:58:03;21.20;48.20
909;DHT22;441;51.192;6.788;2023-02-03T14:01:03;21.20;48.20
909;DHT22;441;51.192;6.788;2023-02-03T14:03:44;21.20;48.20
909;DHT22;441;51.192;6.788;2023-02-03T14:09:35;21.10;48.20
909;DHT22;441;51.192;6.788;2023-02-03T14:12:21;21.10;48.20
909;DHT22;441;51.192;6.788;2023-02-03T14:14:58;21.10;48.20
909;DHT22;441;51.192;6.788;2023-02-03T14:18:03;21.10;48.20
909;DHT22;441;51.192;6.788;2023-02-03T14:20:40;21.10;48.20
909;DHT22;441;51.192;6.788;2023-02-03T14:23:12;21.10;48.30
909;DHT22;441;51.192;6.788;2023-02-03T14:25:42;21.10;48.30
909;DHT22;441;51.192;6.788;2023-02-03T14:28:15;21.10;48.30
909;DHT22;441;51.192;6.788;2023-02-03T14:31:12;21.10;48.30
909;DHT22;441;51.192;6.788;2023-02-03T14:34:03;21.20;48.40
909;DHT22;441;51.192;6.788;2023-02-03T14:36:47;21.10;48.40
909;DHT22;441;51.192;6.788;2023-02-03T14:39:40;20.90;49.40
909;DHT22;441;51.192;6.788;2023-02-03T14:42:18;20.80;50.70
909;DHT22;441;51.192;6.788;2023-02-03T14:44:58;20.80;50.40
909;DHT22;441;51.192;6.788;2023-02-03T14:47:44;20.80;50.60
909;DHT22;441;51.192;6.788;2023-02-03T14:50:25;20.80;50.60
909;DHT22;441;51.192;6.788;2023-02-03T14:53:09;20.90;50.20
909;DHT22;441;51.192;6.788;2023-02-03T14:55:47;21.00;50.20
909;DHT22;441;51.192;6.788;2023-02-03T14:58:25;21.00;50.20
909;DHT22;441;51.192;6.788;2023-02-03T15:00:55;21.10;50.20
909;DHT22;441;51.192;6.788;2023-02-03T15:03:24;21.20;50.30
909;DHT22;441;51.192;6.788;2023-02-03T15:05:54;21.20;50.30
909;DHT22;441;51.192;6.788;2023-02-03T15:08:43;21.30;50.10
909;DHT22;441;51.192;6.788;2023-02-03T15:11:28;21.20;50.20
909;DHT22;441;51.192;6.788;2023-02-03T15:14:12;21.10;50.30
909;DHT22;441;51.192;6.788;2023-02-03T15:16:42;21.10;50.50
909;DHT22;441;51.192;6.788;2023-02-03T15:19:15;21.10;50.50
909;DHT22;441;51.192;6.788;2023-02-03T15:21:42;21.20;50.40
909;DHT22;441;51.192;6.788;2023-02-03T15:24:13;21.40;50.00
909;DHT22;441;51.192;6.788;2023-02-03T15:26:44;21.60;49.70
909;DHT22;441;51.192;6.788;2023-02-03T15:29:19;21.70;49.40
909;DHT22;441;51.192;6.788;2023-02-03T15:31:51;21.70;49.10
909;DHT22;441;51.192;6.788;2023-02-03T15:34:24;21.80;48.90
909;DHT22;441;51.192;6.788;2023-02-03T15:36:54;21.80;48.70
909;DHT22;441;51.192;6.788;2023-02-03T15:39:32;21.80;48.50
909;DHT22;441;51.192;6.788;2023-02-03T15:42:02;21.90;48.50
909;DHT22;441;51.192;6.788;2023-02-03T15:44:33;21.90;48.30
909;DHT22;441;51.192;6.788;2023-02-03T15:47:04;21.90;48.20
909;DHT22;441;51.192;6.788;2023-02-03T15:49:41;21.90;48.10
909;DHT22;441;51.192;6.788;2023-02-03T15:52:13;21.90;48.00
909;DHT22;441;51.192;6.788;2023-02-03T15:54:45;21.90;48.00
909;DHT22;441;51.192;6.788;2023-02-03T15:57:20;21.90;48.00
909;DHT22;441;51.192;6.788;2023-02-03T15:59:52;21.80;48.00
909;DHT22;441;51.192;6.788;2023-02-03T16:02:26;21.80;48.00
909;DHT22;441;51.192;6.788;2023-02-03T16:04:54;21.70;48.10
909;DHT22;441;51.192;6.788;2023-02-03T16:07:22;21.70;48.10
909;DHT22;441;51.192;6.788;2023-02-03T16:09:51;21.60;48.10
909;DHT22;441;51.192;6.788;2023-02-03T16:12:22;21.60;48.20
909;DHT22;441;51.192;6.788;2023-02-03T16:14:50;21.60;48.30
909;DHT22;441;51.192;6.788;2023-02-03T16:17:27;21.50;48.20
909;DHT22;441;51.192;6.788;2023-02-03T16:20:18;21.50;48.30
909;DHT22;441;51.192;6.788;2023-02-03T16:22:58;21.50;48.40
909;DHT22;441;51.192;6.788;2023-02-03T16:25:27;21.40;48.40
909;DHT22;441;51.192;6.788;2023-02-03T16:27:55;21.40;48.40
909;DHT22;441;51.192;6.788;2023-02-03T16:30:51;21.40;48.50
909;DHT22;441;51.192;6.788;2023-02-03T16:33:38;21.30;48.40
909;DHT22;441;51.192;6.788;2023-02-03T16:36:22;21.30;48.50
909;DHT22;441;51.192;6.788;2023-02-03T16:39:10;21.30;48.50
909;DHT22;441;51.192;6.788;2023-02-03T16:41:56;21.30;48.60
909;DHT22;441;51.192;6.788;2023-02-03T16:44:40;21.20;48.50
909;DHT22;441;51.192;6.788;2023-02-03T16:47:26;21.20;48.60
909;DHT22;441;51.192;6.788;2023-02-03T16:50:14;21.20;48.60
909;DHT22;441;51.192;6.788;2023-02-03T16:52:58;21.00;49.30
909;DHT22;441;51.192;6.788;2023-02-03T16:55:25;20.90;50.30
909;DHT22;441;51.192;6.788;2023-02-03T16:57:52;20.80;50.60
909;DHT22;441;51.192;6.788;2023-02-03T17:00:20;20.90;50.50
909;DHT22;441;51.192;6.788;2023-02-03T17:02:47;20.90;50.70
909;DHT22;441;51.192;6.788;2023-02-03T17:05:16;20.90;50.70
909;DHT22;441;51.192;6.788;2023-02-03T17:07:43;20.90;50.70
909;DHT22;441;51.192;6.788;2023-02-03T17:10:11;20.90;50.70
909;DHT22;441;51.192;6.788;2023-02-03T17:12:38;20.90;50.70
909;DHT22;441;51.192;6.788;2023-02-03T17:15:06;21.00;50.60